Time;durP1;ratioP1;P1;durP2;ratioP2;P2;SDS_P1;SDS_P2;PMS_P1;PMS_P2;Temp;Humidity;BMP_temperature;BMP_pressure;BME280_temperature;BME280_humidity;BME280_pressure;Samples;Min_cycle;Max_cycle;Signal;HPM_P1;HPM_P2
2023/09/13 00:01:46;;;;;;;18.08;14.13;;;19.70;99.90;;;;;;5073325;28;20193;-60
2023/09/13 00:04:12;;;;;;;19.77;14.45;;;19.70;99.90;;;;;;5073395;28;20545;-60
2023/09/13 00:06:39;;;;;;;18.35;14.73;;;19.80;99.90;;;;;;5073427;28;20212;-60
2023/09/13 00:09:06;;;;;;;21.52;15.70;;;19.80;99.90;;;;;;5073607;28;20297;-60
2023/09/13 00:11:35;;;;;;;18.70;15.18;;;19.80;99.90;;;;;;5073637;28;20162;-60
2023/09/13 00:14:01;;;;;;;20.27;14.65;;;19.70;99.90;;;;;;5073348;28;20663;-60
2023/09/13 00:16:26;;;;;;;20.42;15.15;;;19.60;99.90;;;;;;5073199;28;20177;-59
2023/09/13 00:18:52;;;;;;;21.23;15.30;;;19.70;99.90;;;;;;5073639;28;20166;-60
2023/09/13 00:21:17;;;;;;;23.00;15.45;;;19.70;99.90;;;;;;5073179;28;20573;-60
2023/09/13 00:23:43;;;;;;;21.20;14.98;;;19.60;99.90;;;;;;5073063;28;20670;-60
2023/09/13 00:26:09;;;;;;;21.98;16.33;;;19.70;99.90;;;;;;5073316;28;20496;-60
2023/09/13 00:28:35;;;;;;;20.45;15.07;;;19.60;99.90;;;;;;5072988;28;20198;-60
2023/09/13 00:31:00;;;;;;;19.48;15.40;;;19.60;99.90;;;;;;5073000;28;20197;-60
2023/09/13 00:33:26;;;;;;;19.85;15.23;;;19.70;99.90;;;;;;5073128;28;20183;-59
2023/09/13 00:35:56;;;;;;;17.20;15.07;;;19.70;99.90;;;;;;5073306;28;20166;-60
2023/09/13 00:38:21;;;;;;;19.65;14.80;;;19.60;99.90;;;;;;5073231;28;20198;-60
2023/09/13 00:40:47;;;;;;;20.48;15.40;;;19.50;99.90;;;;;;5072804;28;20198;-60
2023/09/13 00:43:13;;;;;;;23.73;15.75;;;19.60;99.90;;;;;;5072712;28;20174;-60
2023/09/13 00:45:39;;;;;;;25.27;15.40;;;19.70;99.90;;;;;;5072495;28;20281;-61
2023/09/13 00:48:05;;;;;;;20.67;15.98;;;19.60;99.90;;;;;;5072637;28;20209;-60
2023/09/13 00:50:31;;;;;;;22.92;15.95;;;19.50;99.90;;;;;;5072566;28;20173;-60
2023/09/13 00:52:57;;;;;;;18.23;14.70;;;19.50;99.90;;;;;;5072520;28;20178;-60
2023/09/13 00:55:25;;;;;;;19.60;16.33;;;19.60;99.90;;;;;;5072954;28;20188;-60
2023/09/13 00:57:51;;;;;;;22.52;16.90;;;19.60;99.90;;;;;;5072784;28;20527;-61
2023/09/13 01:00:18;;;;;;;21.45;16.85;;;19.40;99.90;;;;;;5072425;28;20184;-60
2023/09/13 01:02:44;;;;;;;23.10;17.23;;;19.50;99.90;;;;;;5071863;28;20177;-60
2023/09/13 01:05:13;;;;;;;20.20;17.08;;;19.50;99.90;;;;;;5072367;28;20170;-60
2023/09/13 01:07:40;;;;;;;21.52;16.65;;;19.50;99.90;;;;;;5072206;28;20227;-60
2023/09/13 01:10:07;;;;;;;23.38;17.52;;;19.40;99.90;;;;;;5072059;28;20170;-60
2023/09/13 01:12:33;;;;;;;26.00;16.88;;;19.30;99.90;;;;;;5072431;28;20173;-60
2023/09/13 01:15:00;;;;;;;28.02;18.25;;;19.30;99.90;;;;;;5072071;28;20599;-60
2023/09/13 01:17:54;;;;;;;26.73;18.33;;;19.40;99.90;;;;;;5072082;28;20186;-59
2023/09/13 01:20:30;;;;;;;23.75;17.70;;;19.40;99.90;;;;;;5072252;28;20256;-59
2023/09/13 01:23:33;;;;;;;26.08;18.75;;;19.40;99.90;;;;;;5072234;28;20219;-59
2023/09/13 01:26:15;;;;;;;29.75;19.85;;;19.50;99.90;;;;;;5071987;28;20177;-60
2023/09/13 01:28:46;;;;;;;25.40;18.08;;;19.40;99.90;;;;;;5071760;28;20550;-61
2023/09/13 01:31:13;;;;;;;21.30;17.92;;;19.50;99.90;;;;;;5072140;28;20542;-60
2023/09/13 01:33:38;;;;;;;26.08;17.88;;;19.30;99.90;;;;;;5070513;28;20196;-60
2023/09/13 01:36:04;;;;;;;26.58;18.90;;;19.40;99.90;;;;;;5071783;28;20170;-60
2023/09/13 01:38:31;;;;;;;29.50;18.73;;;19.30;99.90;;;;;;5071705;28;20170;-60
2023/09/13 01:41:07;;;;;;;29.80;18.80;;;19.30;99.90;;;;;;5071935;28;20173;-60
2023/09/13 01:43:33;;;;;;;28.90;19.10;;;19.40;99.90;;;;;;5071644;28;20169;-59
2023/09/13 01:46:00;;;;;;;28.15;19.30;;;19.30;99.90;;;;;;5071389;28;20226;-60
2023/09/13 01:48:27;;;;;;;28.95;18.77;;;19.40;99.90;;;;;;5071652;28;20209;-60
2023/09/13 01:50:54;;;;;;;23.63;18.52;;;;;;;;;;5072209;28;20174;-59
2023/09/13 01:53:19;;;;;;;27.77;19.27;;;19.30;99.90;;;;;;5071528;28;20239;-60
2023/09/13 01:55:45;;;;;;;30.30;20.05;;;19.50;99.90;;;;;;5071735;28;20162;-59
2023/09/13 01:58:10;;;;;;;31.45;20.80;;;19.40;99.90;;;;;;5071551;28;20531;-60
2023/09/13 02:00:36;;;;;;;28.10;20.23;;;19.30;99.90;;;;;;5071508;28;20533;-60
2023/09/13 02:03:02;;;;;;;31.45;21.58;;;19.50;99.90;;;;;;5071395;28;20168;-60
2023/09/13 02:05:27;;;;;;;28.17;19.98;;;19.40;99.90;;;;;;5071380;28;20166;-59
2023/09/13 02:07:53;;;;;;;29.92;21.00;;;19.50;99.90;;;;;;5071724;28;20668;-60
2023/09/13 02:10:18;;;;;;;30.75;20.27;;;19.40;99.90;;;;;;5071333;28;20174;-60
2023/09/13 02:12:44;;;;;;;31.13;21.73;;;19.30;99.90;;;;;;5071357;28;20158;-60
2023/09/13 02:15:10;;;;;;;30.90;22.27;;;19.40;99.90;;;;;;5070469;28;20170;-60
2023/09/13 02:17:35;;;;;;;30.48;20.23;;;19.30;99.90;;;;;;5071295;28;20204;-60
2023/09/13 02:20:01;;;;;;;28.98;20.40;;;19.40;99.90;;;;;;5071348;28;20170;-60
2023/09/13 02:22:26;;;;;;;33.92;22.38;;;19.40;99.90;;;;;;5071368;28;20166;-60
2023/09/13 02:24:52;;;;;;;35.92;22.67;;;19.40;99.90;;;;;;5071714;28;20255;-60
2023/09/13 02:27:17;;;;;;;31.17;22.10;;;19.40;99.90;;;;;;5071070;28;20193;-60
2023/09/13 02:29:43;;;;;;;34.33;22.35;;;19.30;99.90;;;;;;5071145;28;20253;-60
2023/09/13 02:32:08;;;;;;;32.80;22.65;;;19.40;99.90;;;;;;5071213;28;20262;-59
2023/09/13 02:34:34;;;;;;;34.85;23.83;;;19.40;99.90;;;;;;5071088;28;20174;-60
2023/09/13 02:36:59;;;;;;;36.67;23.33;;;19.40;99.90;;;;;;5071088;28;20170;-60
2023/09/13 02:39:39;;;;;;;42.75;27.80;;;19.40;99.90;;;;;;5071038;28;20173;-59
2023/09/13 02:42:06;;;;;;;38.63;25.80;;;19.40;99.90;;;;;;5071075;28;20165;-60
2023/09/13 02:44:33;;;;;;;43.05;26.35;;;19.50;99.90;;;;;;5070954;28;20209;-59
2023/09/13 02:47:00;;;;;;;45.15;27.25;;;19.40;99.90;;;;;;5071190;28;20516;-59
2023/09/13 02:49:25;;;;;;;44.65;27.88;;;19.60;99.90;;;;;;5070960;28;20678;-59
2023/09/13 02:51:52;;;;;;;47.45;28.88;;;19.40;99.90;;;;;;5071609;28;20201;-60
2023/09/13 02:54:18;;;;;;;50.60;30.88;;;19.40;99.90;;;;;;5071144;28;20166;-60
2023/09/13 02:56:45;;;;;;;50.42;30.70;;;19.40;99.90;;;;;;5070827;28;20177;-59
2023/09/13 02:59:11;;;;;;;53.95;32.05;;;19.50;99.90;;;;;;5070894;28;20253;-60
2023/09/13 03:01:37;;;;;;;52.85;30.80;;;19.60;99.90;;;;;;5070846;28;20249;-59
2023/09/13 03:04:02;;;;;;;58.08;32.13;;;19.50;99.90;;;;;;5070839;28;20534;-59
2023/09/13 03:06:29;;;;;;;58.00;32.72;;;19.50;99.90;;;;;;5070805;28;20192;-59
2023/09/13 03:08:55;;;;;;;54.53;32.75;;;;;;;;;;5070743;28;20206;-59
2023/09/13 03:11:21;;;;;;;57.10;32.33;;;19.60;99.90;;;;;;5071245;28;20177;-60
2023/09/13 03:13:46;;;;;;;60.13;33.90;;;19.60;99.90;;;;;;5070776;28;20174;-59
2023/09/13 03:16:14;;;;;;;61.33;35.45;;;19.50;99.90;;;;;;5070928;28;20189;-60
2023/09/13 03:18:40;;;;;;;59.65;35.53;;;19.50;99.90;;;;;;5070919;28;20253;-60
2023/09/13 03:21:08;;;;;;;66.72;36.53;;;19.60;99.90;;;;;;5070708;28;20729;-60
2023/09/13 03:23:36;;;;;;;59.70;34.92;;;19.60;99.90;;;;;;5070712;28;20299;-60
2023/09/13 03:26:01;;;;;;;64.55;37.85;;;19.50;99.90;;;;;;5071116;28;20666;-59
2023/09/13 03:28:27;;;;;;;60.47;35.15;;;19.50;99.90;;;;;;5074123;28;20213;-59
2023/09/13 03:30:52;;;;;;;61.85;35.72;;;19.50;99.90;;;;;;5074606;28;20174;-60
2023/09/13 03:33:18;;;;;;;61.03;37.15;;;19.60;99.90;;;;;;5074091;28;20165;-59
2023/09/13 03:35:44;;;;;;;65.80;37.05;;;;;;;;;;5073996;28;20174;-60
2023/09/13 03:38:10;;;;;;;71.53;38.53;;;;;;;;;;5074029;28;20239;-59
2023/09/13 03:40:35;;;;;;;68.07;39.55;;;19.50;99.90;;;;;;5074212;28;20166;-60
2023/09/13 03:43:01;;;;;;;65.90;39.28;;;19.50;99.90;;;;;;5074130;28;20257;-60
2023/09/13 03:45:26;;;;;;;68.15;40.28;;;19.30;99.90;;;;;;5073669;28;20578;-59
2023/09/13 03:47:52;;;;;;;70.55;43.15;;;19.50;99.90;;;;;;5074269;28;20757;-60
2023/09/13 03:50:17;;;;;;;68.20;41.67;;;19.30;99.90;;;;;;5073839;28;20658;-59
2023/09/13 03:52:43;;;;;;;75.88;43.03;;;19.40;99.90;;;;;;5072490;28;20173;-60
2023/09/13 03:55:08;;;;;;;70.30;41.05;;;19.50;99.90;;;;;;5073854;28;20169;-60
2023/09/13 03:57:34;;;;;;;76.93;43.90;;;19.40;99.90;;;;;;5073603;28;20170;-60
2023/09/13 03:59:59;;;;;;;71.03;41.50;;;19.40;99.90;;;;;;5073626;28;20162;-60
2023/09/13 04:02:25;;;;;;;71.85;42.03;;;19.30;99.90;;;;;;5073620;28;20162;-59
2023/09/13 04:04:51;;;;;;;66.95;41.55;;;19.30;99.90;;;;;;5074056;28;20645;-61
2023/09/13 04:07:16;;;;;;;75.40;43.70;;;19.20;99.90;;;;;;5073639;28;20208;-60
2023/09/13 04:09:42;;;;;;;80.38;43.70;;;19.40;99.90;;;;;;5073354;28;20173;-60
2023/09/13 04:12:07;;;;;;;75.13;43.33;;;19.40;99.90;;;;;;5073282;28;20627;-60
2023/09/13 04:14:33;;;;;;;66.70;38.35;;;19.20;99.90;;;;;;5073362;28;20174;-60
2023/09/13 04:16:59;;;;;;;77.40;44.35;;;19.30;99.90;;;;;;5073274;28;20173;-60
2023/09/13 04:19:25;;;;;;;77.97;44.03;;;;;;;;;;5073231;28;20207;-59
2023/09/13 04:21:50;;;;;;;65.82;40.40;;;19.10;99.90;;;;;;5073746;28;20232;-60
2023/09/13 04:24:16;;;;;;;76.72;43.35;;;19.20;99.90;;;;;;5073200;28;20166;-59
2023/09/13 04:26:41;;;;;;;82.47;45.72;;;19.20;99.90;;;;;;5073386;28;20647;-60
2023/09/13 04:29:07;;;;;;;74.28;42.50;;;19.10;99.90;;;;;;5072920;28;20256;-59
2023/09/13 04:31:32;;;;;;;74.80;42.78;;;19.00;99.90;;;;;;5072981;28;20212;-60
2023/09/13 04:33:58;;;;;;;69.53;41.78;;;18.90;99.90;;;;;;5072910;28;20166;-59
2023/09/13 04:36:23;;;;;;;77.60;42.72;;;19.00;99.90;;;;;;5073280;28;20162;-60
2023/09/13 04:38:49;;;;;;;74.25;43.63;;;18.90;99.90;;;;;;5072203;28;20169;-60
2023/09/13 04:41:16;;;;;;;67.43;40.92;;;18.90;99.90;;;;;;5072775;28;20651;-59
2023/09/13 04:43:42;;;;;;;70.70;41.70;;;19.00;99.90;;;;;;5072746;28;20193;-60
2023/09/13 04:46:08;;;;;;;66.38;41.53;;;18.80;99.90;;;;;;5072502;28;20577;-59
2023/09/13 04:48:34;;;;;;;71.75;41.15;;;18.80;99.90;;;;;;5072509;28;20205;-60
2023/09/13 04:51:00;;;;;;;68.95;39.97;;;19.00;99.90;;;;;;5072894;28;20173;-59
2023/09/13 04:53:25;;;;;;;69.28;40.80;;;18.90;99.90;;;;;;5072439;28;20648;-59
2023/09/13 04:55:51;;;;;;;70.47;40.40;;;18.90;99.90;;;;;;5072954;28;20251;-58
2023/09/13 04:58:16;;;;;;;68.03;41.08;;;18.90;99.90;;;;;;5072428;28;20167;-60
2023/09/13 05:00:42;;;;;;;66.60;39.55;;;;;;;;;;5072104;28;20592;-60
2023/09/13 05:03:08;;;;;;;64.47;38.05;;;19.00;99.90;;;;;;5072600;28;20697;-60
2023/09/13 05:05:33;;;;;;;69.70;39.80;;;19.00;99.90;;;;;;5072535;28;20173;-60
2023/09/13 05:07:59;;;;;;;68.20;40.88;;;18.90;99.90;;;;;;5072243;28;20209;-59
2023/09/13 05:10:25;;;;;;;65.22;39.42;;;18.90;99.90;;;;;;5072099;28;20170;-59
2023/09/13 05:12:50;;;;;;;61.67;36.22;;;19.00;99.90;;;;;;5072623;28;20174;-60
2023/09/13 05:15:16;;;;;;;64.55;37.28;;;;;;;;;;5072193;28;20568;-59
2023/09/13 05:17:42;;;;;;;59.90;37.70;;;18.90;99.90;;;;;;5072339;28;20611;-60
2023/09/13 05:20:08;;;;;;;61.55;38.58;;;19.00;99.90;;;;;;5072031;28;20174;-59
2023/09/13 05:22:33;;;;;;;52.55;35.95;;;19.00;99.90;;;;;;5071984;28;20243;-60
2023/09/13 05:25:00;;;;;;;56.13;33.17;;;18.80;99.90;;;;;;5071970;28;20193;-59
2023/09/13 05:27:26;;;;;;;54.85;33.70;;;18.80;99.90;;;;;;5071857;28;20162;-59
2023/09/13 05:29:52;;;;;;;53.25;34.60;;;18.90;99.90;;;;;;5072268;28;20230;-59
2023/09/13 05:32:19;;;;;;;57.10;35.80;;;18.90;99.90;;;;;;5072019;28;20584;-60
2023/09/13 05:34:45;;;;;;;51.35;34.10;;;18.90;99.90;;;;;;5071978;28;20230;-60
2023/09/13 05:37:10;;;;;;;51.45;30.90;;;18.90;99.90;;;;;;5071669;28;20194;-59
2023/09/13 05:39:36;;;;;;;51.00;33.85;;;18.90;99.90;;;;;;5071710;28;20208;-60
2023/09/13 05:42:03;;;;;;;50.45;31.95;;;18.90;99.90;;;;;;5071672;28;20227;-60
2023/09/13 05:44:30;;;;;;;51.85;32.45;;;18.80;99.90;;;;;;5071281;28;20157;-60
2023/09/13 05:46:56;;;;;;;56.03;33.28;;;18.90;99.90;;;;;;5071657;28;20181;-60
2023/09/13 05:49:22;;;;;;;53.88;32.80;;;18.90;99.90;;;;;;5071754;28;20258;-60
2023/09/13 05:51:47;;;;;;;49.55;32.63;;;19.00;99.90;;;;;;5071366;28;20169;-60
2023/09/13 05:54:13;;;;;;;46.92;30.73;;;18.90;99.90;;;;;;5071637;28;20220;-60
2023/09/13 05:56:39;;;;;;;43.85;31.10;;;19.00;99.90;;;;;;5071375;28;20500;-60
2023/09/13 05:59:05;;;;;;;41.00;27.85;;;18.80;99.90;;;;;;5071503;28;20165;-60
2023/09/13 06:01:30;;;;;;;43.83;29.65;;;18.80;99.90;;;;;;5071403;28;20534;-60
2023/09/13 06:03:56;;;;;;;41.80;28.98;;;18.90;99.90;;;;;;5071444;28;20166;-58
2023/09/13 06:06:21;;;;;;;42.63;29.85;;;18.90;99.90;;;;;;5071827;28;20205;-58
2023/09/13 06:08:47;;;;;;;41.33;28.88;;;18.90;99.90;;;;;;5071495;28;20201;-58
2023/09/13 06:11:15;;;;;;;42.97;29.48;;;18.90;99.90;;;;;;5071620;28;20173;-58
2023/09/13 06:13:40;;;;;;;44.53;30.52;;;18.80;99.90;;;;;;5071557;28;20212;-59
2023/09/13 06:16:06;;;;;;;41.47;28.92;;;18.90;99.90;;;;;;5071193;28;20215;-59
2023/09/13 06:18:31;;;;;;;39.20;27.13;;;18.90;99.90;;;;;;5071236;28;20166;-58
2023/09/13 06:20:57;;;;;;;40.85;27.70;;;18.90;99.90;;;;;;5069990;28;20173;-58
2023/09/13 06:23:36;;;;;;;33.80;25.35;;;18.90;99.90;;;;;;5071542;28;20166;-58
2023/09/13 06:26:02;;;;;;;37.70;27.33;;;18.90;99.90;;;;;;5071459;28;20534;-58
2023/09/13 06:28:29;;;;;;;34.65;27.38;;;18.90;99.90;;;;;;5071035;28;20205;-58
2023/09/13 06:30:55;;;;;;;37.15;25.17;;;18.90;99.90;;;;;;5071474;28;20177;-59
2023/09/13 06:33:21;;;;;;;33.38;26.35;;;18.80;99.90;;;;;;5071580;28;20177;-58
2023/09/13 06:35:47;;;;;;;35.88;24.67;;;;;;;;;;5071160;28;20174;-58
2023/09/13 06:38:13;;;;;;;36.35;25.30;;;18.80;99.90;;;;;;5071110;28;20158;-58
2023/09/13 06:40:42;;;;;;;33.95;25.08;;;18.80;99.90;;;;;;5071012;28;20166;-58
2023/09/13 06:43:12;;;;;;;34.15;24.00;;;19.00;99.90;;;;;;5071311;28;20291;-58
2023/09/13 06:45:37;;;;;;;34.30;23.80;;;18.90;99.90;;;;;;5070939;28;20221;-58
2023/09/13 06:48:04;;;;;;;35.83;24.48;;;19.10;99.90;;;;;;5070939;28;20202;-58
2023/09/13 06:50:29;;;;;;;31.70;24.30;;;19.10;99.90;;;;;;5071088;28;20166;-59
2023/09/13 06:52:55;;;;;;;34.90;24.02;;;19.10;99.90;;;;;;5070909;28;20189;-58
2023/09/13 06:55:21;;;;;;;32.10;23.77;;;;;;;;;;5071369;28;20168;-58
2023/09/13 06:57:48;;;;;;;34.17;24.98;;;19.00;99.90;;;;;;5070895;28;20170;-58
2023/09/13 07:00:14;;;;;;;31.48;23.35;;;19.10;99.90;;;;;;5071048;28;20185;-57
2023/09/13 07:02:40;;;;;;;34.17;24.52;;;19.10;99.90;;;;;;5074043;28;20169;-56
2023/09/13 07:05:06;;;;;;;30.58;22.48;;;19.10;99.90;;;;;;5074669;28;20530;-56
2023/09/13 07:07:31;;;;;;;32.88;22.17;;;19.10;99.90;;;;;;5074542;28;20166;-56
2023/09/13 07:09:57;;;;;;;27.88;22.17;;;19.10;99.90;;;;;;5074469;28;20177;-56
2023/09/13 07:12:22;;;;;;;34.05;24.35;;;19.20;99.90;;;;;;5074954;28;20162;-56
2023/09/13 07:14:48;;;;;;;35.55;24.40;;;19.30;99.90;;;;;;5074481;28;20178;-57
2023/09/13 07:17:17;;;;;;;30.45;24.25;;;19.50;99.90;;;;;;5074435;28;20173;-57
2023/09/13 07:19:43;;;;;;;33.03;25.48;;;19.40;99.90;;;;;;5074671;28;20241;-57
2023/09/13 07:22:09;;;;;;;31.67;23.38;;;19.40;99.90;;;;;;5074392;28;20668;-57
2023/09/13 07:24:34;;;;;;;35.78;23.17;;;19.40;99.90;;;;;;5074226;28;20204;-56
2023/09/13 07:27:00;;;;;;;36.78;23.95;;;19.30;99.90;;;;;;5074273;28;20177;-57
2023/09/13 07:29:26;;;;;;;32.33;23.02;;;19.50;99.90;;;;;;5074015;28;20201;-57
2023/09/13 07:31:52;;;;;;;32.35;20.70;;;19.50;99.90;;;;;;5074646;28;20166;-56
2023/09/13 07:34:17;;;;;;;34.00;22.67;;;19.40;99.90;;;;;;5074099;28;20174;-56
2023/09/13 07:36:43;;;;;;;30.25;21.52;;;19.50;99.90;;;;;;5074228;28;21461;-57
2023/09/13 07:39:10;;;;;;;32.03;23.02;;;19.70;99.90;;;;;;5073933;28;20158;-57
2023/09/13 07:41:35;;;;;;;32.55;24.83;;;19.80;99.90;;;;;;5074110;28;20220;-57
2023/09/13 07:44:01;;;;;;;36.08;24.23;;;19.90;99.90;;;;;;5073906;28;20587;-56
2023/09/13 07:46:26;;;;;;;29.45;23.05;;;20.10;99.90;;;;;;5073764;28;20297;-56
2023/09/13 07:48:52;;;;;;;30.15;23.33;;;20.10;99.90;;;;;;5074146;28;20689;-56
2023/09/13 07:51:18;;;;;;;31.08;22.02;;;20.10;99.90;;;;;;5074091;28;20173;-56
2023/09/13 07:53:43;;;;;;;27.10;21.40;;;20.00;99.90;;;;;;5073776;28;20166;-58
2023/09/13 07:56:09;;;;;;;30.40;22.20;;;19.90;99.90;;;;;;5073656;28;20168;-59
2023/09/13 07:58:35;;;;;;;29.73;21.70;;;19.90;99.90;;;;;;5073616;28;20579;-58
2023/09/13 08:01:01;;;;;;;28.70;20.73;;;20.10;99.90;;;;;;5073594;28;20170;-58
2023/09/13 08:03:26;;;;;;;28.70;21.05;;;20.20;99.90;;;;;;5073539;28;20622;-58
2023/09/13 08:05:52;;;;;;;27.67;19.83;;;20.10;99.90;;;;;;5072686;28;20223;-58
2023/09/13 08:08:22;;;;;;;27.73;19.75;;;20.20;99.90;;;;;;5073350;28;20227;-58
2023/09/13 08:10:52;;;;;;;26.85;19.50;;;20.30;99.90;;;;;;5074031;28;20260;-56
2023/09/13 08:13:21;;;;;;;29.55;20.00;;;20.30;99.90;;;;;;5072133;28;20166;-58
2023/09/13 08:15:50;;;;;;;24.48;18.65;;;20.40;99.90;;;;;;5073370;28;20174;-58
2023/09/13 08:18:17;;;;;;;23.00;17.25;;;20.40;99.90;;;;;;5072411;28;20251;-58
2023/09/13 08:20:43;;;;;;;22.50;17.63;;;20.40;99.90;;;;;;5073243;28;20166;-58
2023/09/13 08:23:08;;;;;;;24.60;18.42;;;20.40;99.90;;;;;;5073251;28;20162;-58
2023/09/13 08:25:34;;;;;;;24.80;17.80;;;20.40;99.90;;;;;;5073185;28;20174;-58
2023/09/13 08:27:59;;;;;;;21.60;15.70;;;20.30;99.90;;;;;;5073057;28;20678;-59
2023/09/13 08:30:25;;;;;;;22.48;16.88;;;20.20;99.90;;;;;;5073106;28;20534;-60
2023/09/13 08:32:51;;;;;;;24.27;17.02;;;;;;;;;;5073469;28;20249;-60
2023/09/13 08:35:16;;;;;;;23.17;17.40;;;20.50;99.90;;;;;;5072989;28;20538;-59
2023/09/13 08:37:42;;;;;;;20.35;16.25;;;;;;;;;;5072929;28;20224;-59
2023/09/13 08:40:09;;;;;;;25.50;16.58;;;20.70;99.90;;;;;;5072875;28;20162;-59
2023/09/13 08:42:35;;;;;;;26.30;16.77;;;20.60;99.90;;;;;;5072789;28;20173;-59
2023/09/13 08:45:01;;;;;;;22.05;14.20;;;20.70;99.90;;;;;;5071511;28;20209;-60
2023/09/13 08:47:29;;;;;;;24.10;16.15;;;20.60;99.90;;;;;;5072765;28;20185;-59
2023/09/13 08:49:57;;;;;;;24.08;17.08;;;20.50;99.90;;;;;;5072698;28;20174;-59
2023/09/13 08:52:25;;;;;;;22.20;15.48;;;20.60;99.90;;;;;;5073021;28;20216;-59
2023/09/13 08:54:52;;;;;;;22.83;15.55;;;20.60;99.90;;;;;;5073040;28;20631;-59
2023/09/13 08:57:20;;;;;;;23.90;14.23;;;20.40;99.90;;;;;;5072479;28;20253;-59
2023/09/13 08:59:47;;;;;;;20.52;13.98;;;20.50;99.90;;;;;;5072426;28;20626;-60
2023/09/13 09:02:17;;;;;;;24.23;15.10;;;20.40;99.90;;;;;;5072555;28;20856;-60
2023/09/13 09:04:43;;;;;;;21.92;15.02;;;20.40;99.90;;;;;;5072683;28;20253;-60
2023/09/13 09:07:09;;;;;;;23.90;16.42;;;20.50;99.90;;;;;;5072334;28;20177;-60
2023/09/13 09:09:36;;;;;;;21.42;14.50;;;20.50;99.90;;;;;;5072192;28;20206;-59
2023/09/13 09:12:03;;;;;;;17.48;13.20;;;20.50;99.90;;;;;;5072304;28;20173;-60
2023/09/13 09:14:32;;;;;;;19.17;13.60;;;20.50;99.90;;;;;;5072545;28;20515;-60
2023/09/13 09:16:59;;;;;;;19.33;13.27;;;20.60;99.90;;;;;;5072166;28;20166;-60
2023/09/13 09:19:26;;;;;;;17.13;14.18;;;20.60;99.90;;;;;;5071962;28;20211;-59
2023/09/13 09:21:51;;;;;;;20.30;14.35;;;20.70;99.90;;;;;;5072741;28;20180;-59
2023/09/13 09:24:17;;;;;;;20.55;14.55;;;20.50;99.90;;;;;;5071656;28;20166;-59
2023/09/13 09:26:44;;;;;;;23.27;16.05;;;20.50;99.90;;;;;;5071942;28;20170;-59
2023/09/13 09:29:14;;;;;;;24.65;14.82;;;20.50;99.90;;;;;;5072387;28;20266;-59
2023/09/13 09:31:40;;;;;;;23.92;14.88;;;20.50;99.90;;;;;;5071926;28;20162;-59
2023/09/13 09:34:09;;;;;;;17.00;13.15;;;20.70;99.90;;;;;;5071899;28;20163;-59
2023/09/13 09:36:42;;;;;;;14.98;12.07;;;20.90;99.90;;;;;;5071694;28;20166;-60
2023/09/13 09:39:08;;;;;;;17.30;12.07;;;21.00;99.90;;;;;;5071701;28;20535;-59
2023/09/13 09:41:35;;;;;;;19.00;12.65;;;21.10;99.90;;;;;;5072043;28;20169;-59
2023/09/13 09:44:01;;;;;;;18.17;13.05;;;21.30;99.90;;;;;;5071748;28;20161;-58
2023/09/13 09:46:27;;;;;;;16.60;12.45;;;21.30;99.90;;;;;;5071498;28;20256;-60
2023/09/13 09:48:53;;;;;;;15.05;12.18;;;;;;;;;;5071500;28;20233;-58
2023/09/13 09:51:20;;;;;;;19.15;13.07;;;21.50;99.90;;;;;;5072099;28;20169;-59
2023/09/13 09:53:46;;;;;;;16.20;12.52;;;21.50;99.90;;;;;;5071779;28;20174;-57
2023/09/13 09:56:12;;;;;;;15.48;12.23;;;21.70;99.90;;;;;;5070430;28;20678;-60
2023/09/13 09:58:38;;;;;;;15.88;12.15;;;21.60;99.90;;;;;;5071567;28;20158;-60
2023/09/13 10:01:04;;;;;;;19.65;11.88;;;21.50;99.90;;;;;;5071562;28;20173;-59
2023/09/13 10:03:34;;;;;;;17.45;11.80;;;21.40;99.90;;;;;;5071723;28;20162;-59
2023/09/13 10:06:06;;;;;;;16.10;12.48;;;21.40;99.90;;;;;;5071812;28;20193;-59
2023/09/13 10:08:49;;;;;;;19.02;13.10;;;21.60;99.90;;;;;;5071418;28;20213;-59
2023/09/13 10:11:17;;;;;;;19.05;14.30;;;21.40;99.90;;;;;;5071717;28;20173;-58
2023/09/13 10:13:46;;;;;;;22.70;12.82;;;21.40;99.90;;;;;;5071432;28;20158;-58
2023/09/13 10:16:14;;;;;;;15.75;12.45;;;21.70;99.90;;;;;;5071394;28;20166;-58
2023/09/13 10:18:46;;;;;;;17.65;12.10;;;21.80;99.90;;;;;;5071263;28;20164;-58
2023/09/13 10:21:24;;;;;;;16.40;12.35;;;21.80;99.90;;;;;;5071337;28;20165;-57
2023/09/13 10:24:04;;;;;;;16.38;12.85;;;21.70;99.90;;;;;;5071850;28;20563;-58
2023/09/13 10:26:31;;;;;;;14.27;11.05;;;21.80;99.90;;;;;;5071326;28;20166;-58
2023/09/13 10:29:06;;;;;;;17.60;11.50;;;21.90;99.90;;;;;;5071378;28;20205;-58
2023/09/13 10:31:39;;;;;;;18.55;12.40;;;22.50;99.90;;;;;;5071225;28;20215;-58
2023/09/13 10:34:09;;;;;;;13.40;11.27;;;22.80;99.90;;;;;;5071260;28;20177;-59
2023/09/13 10:36:39;;;;;;;17.23;10.35;;;23.20;99.90;;;;;;5072941;28;20222;-59
2023/09/13 10:39:15;;;;;;;13.13;10.95;;;22.90;99.90;;;;;;5075453;28;20180;-58
2023/09/13 10:41:59;;;;;;;15.65;11.38;;;23.30;99.90;;;;;;5075127;28;20165;-58
2023/09/13 10:44:25;;;;;;;12.43;9.82;;;23.40;99.90;;;;;;5075222;28;20263;-57
2023/09/13 10:46:51;;;;;;;13.77;10.80;;;23.00;99.90;;;;;;5075456;28;20208;-58
2023/09/13 10:49:16;;;;;;;17.38;10.55;;;22.90;99.90;;;;;;5074966;28;20220;-58
2023/09/13 10:51:43;;;;;;;12.85;9.40;;;23.00;99.90;;;;;;5074916;28;20158;-58
2023/09/13 10:54:10;;;;;;;11.57;8.82;;;22.90;99.90;;;;;;5074930;28;20230;-58
2023/09/13 10:56:36;;;;;;;10.70;8.85;;;22.80;99.90;;;;;;5074791;28;20162;-58
2023/09/13 10:59:03;;;;;;;12.27;8.77;;;22.70;99.90;;;;;;5074849;28;20514;-58
2023/09/13 11:01:30;;;;;;;11.02;7.85;;;22.60;99.90;;;;;;5075185;28;20595;-58
2023/09/13 11:03:56;;;;;;;11.43;8.98;;;22.80;99.90;;;;;;5074611;28;20172;-58
2023/09/13 11:06:23;;;;;;;12.80;9.07;;;22.90;99.90;;;;;;5073834;28;20254;-58
2023/09/13 11:08:49;;;;;;;10.15;8.73;;;23.10;99.90;;;;;;5075187;28;20213;-58
2023/09/13 11:11:18;;;;;;;10.85;8.40;;;23.10;99.90;;;;;;5074824;28;20166;-59
2023/09/13 11:13:50;;;;;;;13.45;9.32;;;23.20;99.90;;;;;;5074461;28;20653;-59
2023/09/13 11:16:16;;;;;;;11.85;9.10;;;22.90;99.90;;;;;;5073196;28;20607;-59
2023/09/13 11:18:55;;;;;;;10.13;8.18;;;23.30;99.90;;;;;;5074621;28;20180;-59
2023/09/13 11:21:28;;;;;;;11.20;8.80;;;23.30;99.90;;;;;;5074847;28;20166;-58
2023/09/13 11:23:54;;;;;;;10.98;8.65;;;23.20;99.90;;;;;;5074440;28;20545;-58
2023/09/13 11:26:46;;;;;;;13.32;9.48;;;23.00;99.90;;;;;;5074678;28;20631;-58
2023/09/13 11:29:22;;;;;;;15.73;9.57;;;22.70;99.90;;;;;;5074173;28;20284;-58
2023/09/13 11:32:03;;;;;;;13.80;9.93;;;22.50;99.90;;;;;;5074561;28;20260;-58
2023/09/13 11:34:33;;;;;;;14.02;10.57;;;22.10;99.90;;;;;;5056525;28;20260;-58
2023/09/13 11:37:01;;;;;;;14.40;10.30;;;21.90;99.90;;;;;;5074343;28;20257;-59
2023/09/13 11:39:30;;;;;;;16.38;10.52;;;21.70;99.90;;;;;;5073961;28;20657;-59
2023/09/13 11:41:56;;;;;;;4.38;3.97;;;21.40;99.90;;;;;;5074010;28;20181;-59
2023/09/13 11:44:25;;;;;;;6.00;3.25;;;21.30;99.90;;;;;;5074693;28;20173;-59
2023/09/13 11:46:53;;;;;;;2.60;2.20;;;21.20;99.90;;;;;;5074119;28;20178;-59
2023/09/13 11:49:21;;;;;;;2.00;1.35;;;21.00;99.90;;;;;;5074436;28;20212;-59
2023/09/13 11:51:54;;;;;;;2.67;1.75;;;20.70;99.90;;;;;;5074068;28;20173;-59
2023/09/13 11:54:22;;;;;;;1.95;1.77;;;20.70;99.90;;;;;;5074282;28;20162;-60
2023/09/13 11:56:54;;;;;;;2.00;1.80;;;20.50;99.90;;;;;;5074329;28;20177;-59
2023/09/13 11:59:31;;;;;;;3.28;2.90;;;20.40;99.90;;;;;;5074189;28;20627;-60
2023/09/13 12:01:57;;;;;;;3.85;3.22;;;20.30;99.90;;;;;;5073588;28;20218;-60
2023/09/13 12:04:26;;;;;;;3.40;2.80;;;20.10;99.90;;;;;;5073672;28;20169;-59
2023/09/13 12:06:57;;;;;;;2.80;2.60;;;19.90;99.90;;;;;;5074025;28;20181;-58
2023/09/13 12:09:23;;;;;;;3.53;3.22;;;19.70;99.90;;;;;;5072008;28;20205;-59
2023/09/13 12:11:51;;;;;;;4.18;3.50;;;19.70;99.90;;;;;;5074139;28;20170;-60
2023/09/13 12:14:22;;;;;;;3.80;3.42;;;19.30;99.90;;;;;;5073391;28;20216;-60
2023/09/13 12:16:51;;;;;;;4.55;4.03;;;19.30;99.90;;;;;;5073980;28;20520;-60
2023/09/13 12:19:17;;;;;;;5.75;5.25;;;19.20;99.90;;;;;;5073296;28;20532;-58
2023/09/13 12:21:46;;;;;;;5.43;4.45;;;19.20;99.90;;;;;;5073272;28;20196;-60
2023/09/13 12:24:18;;;;;;;4.47;4.07;;;19.30;99.90;;;;;;5073265;28;20867;-59
2023/09/13 12:26:44;;;;;;;5.07;4.68;;;19.20;99.90;;;;;;5073207;28;20253;-59
2023/09/13 12:29:10;;;;;;;6.28;5.30;;;19.20;99.90;;;;;;5071734;28;20309;-59
2023/09/13 12:31:36;;;;;;;5.60;5.10;;;19.00;99.90;;;;;;5072981;28;20194;-58
2023/09/13 12:34:02;;;;;;;8.38;5.43;;;19.00;99.90;;;;;;5073237;28;20267;-58